Time;durP1;ratioP1;P1;durP2;ratioP2;P2;SDS_P1;SDS_P2;PMS_P1;PMS_P2;Temp;Humidity;BMP_temperature;BMP_pressure;BME280_temperature;BME280_humidity;BME280_pressure;Samples;Min_cycle;Max_cycle;Signal;HPM_P1;HPM_P2
2021/09/08 00:00:43;;;;;;;16.90;7.17;;;;;;;14.57;100.00;-2694.69;5044994;28;20025;-72
2021/09/08 00:03:09;;;;;;;13.17;6.27;;;;;;;14.55;100.00;-3276.63;5045357;28;20045;-71
2021/09/08 00:05:36;;;;;;;12.97;6.43;;;;;;;14.48;100.00;1733.56;5045195;28;20029;-72
2021/09/08 00:08:02;;;;;;;14.93;6.90;;;;;;;14.45;100.00;3241.38;5045716;28;20088;-72
2021/09/08 00:10:27;;;;;;;13.80;6.83;;;;;;;14.44;100.00;5755.38;5045528;28;20025;-72
2021/09/08 00:12:53;;;;;;;13.97;5.87;;;;;;;14.19;100.00;11718.44;5042603;28;20028;-72
2021/09/08 00:15:18;;;;;;;14.77;6.47;;;;;;;13.86;100.00;20186.97;5042119;28;20625;-72
2021/09/08 00:17:44;;;;;;;14.53;6.70;;;;;;;13.72;100.00;28580.41;5042269;28;20028;-72
2021/09/08 00:20:11;;;;;;;12.37;6.07;;;;;;;13.62;100.00;39065.44;5041841;28;20021;-71
2021/09/08 00:22:37;;;;;;;12.87;6.70;;;;;;;13.51;100.00;43574.22;5041966;28;20024;-71
2021/09/08 00:25:04;;;;;;;15.73;6.97;;;;;;;13.46;100.00;49978.78;5041745;28;20036;-72
2021/09/08 00:27:30;;;;;;;13.50;6.67;;;;;;;13.38;100.00;54947.84;5042078;28;20075;-71
2021/09/08 00:29:55;;;;;;;17.50;6.87;;;;;;;13.34;100.00;59313.63;5041606;28;20040;-71
2021/09/08 00:32:21;;;;;;;15.40;7.40;;;;;;;13.31;100.00;62257.75;5041843;28;20017;-72
2021/09/08 00:34:46;;;;;;;17.27;7.30;;;;;;;13.29;100.00;66212.94;5041757;28;20284;-72
2021/09/08 00:37:12;;;;;;;16.70;7.63;;;;;;;13.42;100.00;69928.41;5042058;28;20120;-72
2021/09/08 00:39:38;;;;;;;15.27;7.47;;;;;;;13.67;100.00;64201.53;5041757;28;20095;-72
2021/09/08 00:42:13;;;;;;;15.47;7.20;;;;;;;13.96;100.00;43717.56;5041976;28;20480;-72
2021/09/08 00:44:39;;;;;;;15.27;7.77;;;;;;;14.14;100.00;23420.19;5041559;28;20029;-72
2021/09/08 00:47:05;;;;;;;19.13;7.70;;;;;;;14.19;100.00;10460.69;5041455;28;20377;-71
2021/09/08 00:49:31;;;;;;;16.17;7.30;;;;;;;14.25;100.00;5156.56;5041501;28;20293;-72
2021/09/08 00:51:57;;;;;;;16.53;7.33;;;;;;;14.14;100.00;3260.97;5041675;28;20052;-72
2021/09/08 00:54:23;;;;;;;16.67;7.00;;;;;;;13.95;100.00;8829.97;5041316;28;20060;-72
2021/09/08 00:56:54;;;;;;;14.60;6.87;;;;;;;13.74;100.00;19307.50;5041506;28;20021;-72
2021/09/08 00:59:20;;;;;;;15.70;6.80;;;;;;;13.56;100.00;26200.88;5041053;28;20482;-72
2021/09/08 01:01:46;;;;;;;15.80;7.87;;;;;;;13.47;100.00;36901.72;5064532;22;20550;-66
2021/09/08 01:04:13;;;;;;;14.73;7.17;;;;;;;13.27;100.00;53449.94;5040966;28;20512;-66
2021/09/08 01:06:39;;;;;;;18.17;7.27;;;;;;;13.11;100.00;59249.16;5041363;28;20432;-66
2021/09/08 01:09:05;;;;;;;15.17;7.17;;;;;;;13.04;100.00;68883.56;5041321;28;20185;-66
2021/09/08 01:11:31;;;;;;;17.87;7.33;;;;;;;12.93;100.00;76536.25;5041290;28;20033;-66
2021/09/08 01:13:56;;;;;;;16.67;7.77;;;;;;;12.86;100.00;78529.19;5041126;28;20226;-66
2021/09/08 01:16:21;;;;;;;14.67;6.77;;;;;;;12.79;100.00;75851.19;5040937;28;20025;-66
2021/09/08 01:18:47;;;;;;;18.30;8.57;;;;;;;12.83;100.00;79193.41;5040661;28;20041;-66
2021/09/08 01:21:13;;;;;;;18.40;8.27;;;;;;;12.88;100.00;84212.19;5041006;28;20036;-66
2021/09/08 01:23:38;;;;;;;16.90;7.30;;;;;;;12.85;100.00;84542.19;5040641;28;20041;-66
2021/09/08 01:26:04;;;;;;;17.60;7.63;;;;;;;12.81;100.00;81194.28;5040836;28;20035;-66
2021/09/08 01:28:30;;;;;;;19.73;7.77;;;;;;;12.76;100.00;78182.47;5040690;28;20434;-66
2021/09/08 01:30:57;;;;;;;15.90;7.30;;;;;;;12.73;100.00;80181.19;5040682;28;20104;-66
2021/09/08 01:33:23;;;;;;;17.47;8.17;;;;;;;12.67;100.00;79838.25;5040669;28;20085;-66
2021/09/08 01:35:49;;;;;;;19.10;7.83;;;;;;;12.65;100.00;87857.16;5040749;28;20021;-66
2021/09/08 01:38:17;;;;;;;17.90;8.27;;;;;;;12.68;100.00;92213.63;5040699;28;20025;-66
2021/09/08 01:40:43;;;;;;;19.23;8.77;;;;;;;12.68;100.00;93890.00;5040518;28;20576;-66
2021/09/08 01:43:08;;;;;;;24.53;9.20;;;;;;;12.72;100.00;92891.03;5040769;28;20572;-66
2021/09/08 01:45:34;;;;;;;18.47;7.87;;;;;;;12.71;100.00;91213.41;5040309;28;20024;-66
2021/09/08 01:47:59;;;;;;;19.93;8.40;;;;;;;12.73;100.00;89542.19;5040613;28;20147;-66
2021/09/08 01:50:25;;;;;;;21.30;9.10;;;;;;;12.83;100.00;88219.28;5040340;28;20083;-66
2021/09/08 01:52:51;;;;;;;23.40;8.53;;;;;;;12.85;100.00;86549.06;5040442;28;20537;-66
2021/09/08 01:55:17;;;;;;;20.60;7.80;;;;;;;12.79;100.00;83864.72;5040296;28;20209;-66
2021/09/08 01:57:43;;;;;;;21.20;8.30;;;;;;;12.74;100.00;80849.75;5040391;28;20536;-66
2021/09/08 02:00:11;;;;;;;19.50;8.20;;;;;;;12.63;100.00;81502.84;5040218;28;20489;-66
2021/09/08 02:02:36;;;;;;;16.80;8.20;;;;;;;12.58;100.00;79827.13;5019887;28;20049;-67
2021/09/08 02:05:02;;;;;;;17.50;7.63;;;;;;;12.54;100.00;79820.91;5019801;28;20034;-67
2021/09/08 02:07:28;;;;;;;22.63;9.13;;;;;;;12.52;100.00;80151.88;5020535;28;20029;-67
2021/09/08 02:09:53;;;;;;;17.23;8.40;;;;;;;12.47;100.00;82481.94;5020017;28;20029;-67
2021/09/08 02:12:19;;;;;;;20.07;8.97;;;;;;;12.39;100.00;84808.78;5019974;28;20032;-66
2021/09/08 02:14:44;;;;;;;22.27;8.40;;;;;;;12.27;100.00;85795.03;5020010;28;20051;-67
2021/09/08 02:17:10;;;;;;;21.60;8.87;;;;;;;12.19;100.00;87119.94;5019888;28;20043;-67
2021/09/08 02:19:35;;;;;;;23.97;8.97;;;;;;;12.16;100.00;83439.78;5019966;28;20065;-67
2021/09/08 02:22:01;;;;;;;19.63;8.83;;;;;;;12.17;100.00;82105.88;5019962;28;20025;-67
2021/09/08 02:24:30;;;;;;;18.23;7.90;;;;;;;12.11;100.00;76761.53;5019632;28;20265;-67
2021/09/08 02:26:58;;;;;;;19.53;7.90;;;;;;;12.07;100.00;74424.56;5019802;28;20030;-67
2021/09/08 02:29:24;;;;;;;17.70;7.50;;;;;;;12.00;100.00;74749.09;5019580;28;20065;-67
2021/09/08 02:31:49;;;;;;;18.67;7.97;;;;;;;12.01;100.00;77082.03;5019854;28;20463;-67
2021/09/08 02:34:15;;;;;;;20.67;8.50;;;;;;;12.00;100.00;78747.78;5020106;28;20517;-67
2021/09/08 02:36:41;;;;;;;22.90;8.90;;;;;;;12.03;100.00;80418.50;5019565;28;20072;-67
2021/09/08 02:39:07;;;;;;;22.10;9.33;;;;;;;12.01;100.00;82751.19;5019561;28;20272;-67
2021/09/08 02:41:33;;;;;;;23.60;9.00;;;;;;;12.01;100.00;84420.38;5020123;28;20451;-67
2021/09/08 02:43:58;;;;;;;21.10;9.73;;;;;;;12.09;100.00;86770.59;5019765;28;20037;-67
2021/09/08 02:46:24;;;;;;;26.13;10.27;;;;;;;12.17;100.00;89791.31;5019217;28;20483;-67
2021/09/08 02:48:49;;;;;;;21.47;9.13;;;;;;;12.08;100.00;86769.09;5019363;28;20044;-67
2021/09/08 02:51:15;;;;;;;24.23;9.67;;;;;;;12.07;100.00;101502.69;5019134;28;20263;-66
2021/09/08 02:53:40;;;;;;;24.97;10.03;;;;;;;12.19;100.00;113291.97;5020437;28;20477;-66
2021/09/08 02:56:06;;;;;;;22.67;9.60;;;;;;;12.15;100.00;133887.81;5019463;28;20287;-66
2021/09/08 02:58:31;;;;;;;23.67;9.17;;;;;;;12.07;100.00;136241.06;5020063;28;20063;-67
2021/09/08 03:00:58;;;;;;;22.73;8.97;;;;;;;12.02;100.00;138263.34;5019841;28;20044;-67
2021/09/08 03:03:23;;;;;;;24.47;9.77;;;;;;;11.99;100.00;138935.63;5019474;28;20131;-67
2021/09/08 03:05:50;;;;;;;25.27;10.20;;;;;;;12.07;100.00;139970.06;5019808;28;20136;-67
2021/09/08 03:08:16;;;;;;;25.03;9.93;;;;;;;12.12;100.00;140662.06;5019898;28;20408;-67
2021/09/08 03:10:43;;;;;;;25.60;9.43;;;;;;;12.08;100.00;140991.69;5019775;28;20025;-67
2021/09/08 03:13:14;;;;;;;25.50;9.73;;;;;;;12.06;100.00;140306.94;5019580;28;20104;-67
2021/09/08 03:15:40;;;;;;;24.47;10.43;;;;;;;11.99;100.00;138595.25;5019784;28;20080;-67
2021/09/08 03:18:07;;;;;;;25.17;10.13;;;;;;;11.97;100.00;138251.38;5019861;28;20040;-67
2021/09/08 03:20:32;;;;;;;25.83;8.97;;;;;;;11.96;100.00;137231.97;5019675;28;20195;-67
2021/09/08 03:22:58;;;;;;;21.57;9.23;;;;;;;11.89;100.00;137893.34;5019852;28;20030;-67
2021/09/08 03:25:24;;;;;;;27.30;9.27;;;;;;;11.83;100.00;137540.13;5030467;28;20029;-67
2021/09/08 03:27:49;;;;;;;28.07;9.00;;;;;;;11.78;100.00;120961.31;5039667;28;20112;-67
2021/09/08 03:30:15;;;;;;;20.07;8.43;;;;;;;11.74;100.00;118931.84;5039547;28;20116;-67
2021/09/08 03:32:40;;;;;;;24.70;9.83;;;;;;;11.83;100.00;118949.34;5039339;28;20182;-67
2021/09/08 03:35:07;;;;;;;24.93;9.97;;;;;;;11.88;100.00;118621.47;5039102;28;20032;-67
2021/09/08 03:37:32;;;;;;;24.63;10.10;;;;;;;11.95;100.00;118972.97;5039143;28;20095;-67
2021/09/08 03:39:58;;;;;;;25.93;9.90;;;;;;;11.97;100.00;116954.31;5031350;28;20318;-67
2021/09/08 03:42:24;;;;;;;24.40;10.40;;;;;;;11.99;100.00;116285.34;5019760;28;20549;-67
2021/09/08 03:44:50;;;;;;;30.03;10.63;;;;;;;12.01;100.00;112583.44;5019626;28;20304;-67
2021/09/08 03:47:16;;;;;;;27.13;10.50;;;;;;;12.01;100.00;109555.06;5019589;28;20025;-67
2021/09/08 03:49:45;;;;;;;30.10;10.70;;;;;;;11.97;100.00;106521.91;5023090;28;20037;-67
2021/09/08 03:52:12;;;;;;;25.70;9.87;;;;;;;11.95;100.00;104502.72;5023539;28;20029;-67
2021/09/08 03:54:37;;;;;;;26.00;10.07;;;;;;;11.85;100.00;98446.09;5023229;28;20434;-67
2021/09/08 03:57:03;;;;;;;19.27;8.83;;;;;;;11.83;100.00;95092.56;5023416;28;20258;-67
2021/09/08 03:59:28;;;;;;;23.33;9.40;;;;;;;11.80;100.00;91071.97;5023129;28;20349;-67
2021/09/08 04:01:54;;;;;;;25.07;9.67;;;;;;;11.86;100.00;91082.22;5023509;28;20041;-67
2021/09/08 04:04:19;;;;;;;19.90;7.60;;;;;;;11.73;100.00;84046.97;5023156;28;20390;-67
2021/09/08 04:06:45;;;;;;;19.47;8.20;;;;;;;11.64;100.00;72706.72;5023617;28;20429;-67
2021/09/08 04:09:10;;;;;;;21.23;8.80;;;;;;;11.64;100.00;69714.81;5022634;28;20029;-67
2021/09/08 04:11:36;;;;;;;23.20;9.10;;;;;;;11.70;100.00;73712.94;5023591;28;20139;-67
2021/09/08 04:14:02;;;;;;;27.67;9.90;;;;;;;11.84;100.00;81726.59;5023226;28;20040;-67
2021/09/08 04:16:27;;;;;;;26.87;10.03;;;;;;;11.91;100.00;84405.69;5023355;28;20099;-67
2021/09/08 04:18:53;;;;;;;24.03;10.30;;;;;;;11.93;100.00;82739.66;5023168;28;20184;-67
2021/09/08 04:21:18;;;;;;;27.47;10.40;;;;;;;11.89;100.00;79398.66;5022998;28;20033;-67
2021/09/08 04:23:44;;;;;;;25.80;10.30;;;;;;;11.87;100.00;76063.97;5022619;28;20044;-67
2021/09/08 04:26:09;;;;;;;29.10;10.97;;;;;;;11.95;100.00;75408.50;5022990;28;20037;-68
2021/09/08 04:28:35;;;;;;;28.57;10.60;;;;;;;12.04;100.00;76419.66;5023078;28;20025;-67
2021/09/08 04:31:00;;;;;;;31.53;12.03;;;;;;;12.16;100.00;75769.28;5022866;28;20386;-67
2021/09/08 04:33:26;;;;;;;26.40;10.80;;;;;;;12.17;100.00;71774.94;5023086;28;20029;-67
2021/09/08 04:35:54;;;;;;;25.80;10.63;;;;;;;12.20;100.00;67455.09;5022654;28;20022;-67
2021/09/08 04:38:21;;;;;;;26.70;11.33;;;;;;;12.25;100.00;61493.41;5022288;28;20521;-67
2021/09/08 04:40:47;;;;;;;24.83;10.77;;;;;;;12.32;100.00;56213.50;5022693;28;20029;-67
2021/09/08 04:43:13;;;;;;;26.07;10.90;;;;;;;12.29;100.00;48131.16;5022466;28;20104;-68
2021/09/08 04:45:38;;;;;;;26.67;10.13;;;;;;;12.24;100.00;41430.03;5022386;28;20229;-67
2021/09/08 04:48:04;;;;;;;21.60;9.27;;;;;;;11.98;100.00;28043.31;5022641;28;20029;-67
2021/09/08 04:50:30;;;;;;;20.30;8.57;;;;;;;11.88;100.00;24115.72;5021756;28;20346;-67
2021/09/08 04:52:58;;;;;;;21.63;9.63;;;;;;;11.80;100.00;25280.44;5022203;28;20029;-67
2021/09/08 04:55:24;;;;;;;23.27;10.70;;;;;;;11.87;100.00;34909.22;5022043;28;20622;-67
2021/09/08 04:57:49;;;;;;;30.70;10.57;;;;;;;11.97;100.00;45559.91;5021997;28;20120;-67
2021/09/08 05:00:15;;;;;;;30.30;12.03;;;;;;;12.07;100.00;52627.53;5021724;28;20057;-67
2021/09/08 05:02:41;;;;;;;29.37;11.07;;;;;;;12.14;100.00;56809.00;5022482;28;20056;-67
2021/09/08 05:05:07;;;;;;;23.33;10.00;;;;;;;12.09;100.00;48777.50;5021868;28;20095;-67
2021/09/08 05:07:33;;;;;;;27.20;10.10;;;;;;;12.02;100.00;35684.69;5022415;28;20104;-67
2021/09/08 05:09:58;;;;;;;22.30;9.30;;;;;;;12.02;100.00;41692.63;5021938;28;20033;-68
2021/09/08 05:12:24;;;;;;;19.23;9.03;;;;;;;11.93;100.00;31670.13;5021756;28;20029;-67
2021/09/08 05:14:49;;;;;;;25.63;9.53;;;;;;;11.84;100.00;25602.72;5021727;28;20123;-67
2021/09/08 05:17:15;;;;;;;18.73;9.13;;;;;;;11.87;100.00;24233.13;5021705;28;20592;-67
2021/09/08 05:19:40;;;;;;;19.57;8.63;;;;;;;11.95;100.00;25123.53;5021629;28;20113;-68
2021/09/08 05:22:06;;;;;;;21.37;9.07;;;;;;;11.99;100.00;22353.00;5021775;28;20033;-67
2021/09/08 05:24:31;;;;;;;22.73;9.90;;;;;;;12.05;100.00;18884.00;5025077;28;20465;-68
2021/09/08 05:26:56;;;;;;;21.87;9.10;;;;;;;12.07;100.00;16331.94;5041079;28;20035;-67
2021/09/08 05:29:22;;;;;;;21.03;9.10;;;;;;;12.10;100.00;12979.75;5040902;28;20253;-67
2021/09/08 05:31:48;;;;;;;20.00;9.47;;;;;;;12.15;100.00;9722.94;5041193;28;20029;-67
2021/09/08 05:34:13;;;;;;;20.23;8.53;;;;;;;12.16;100.00;7960.03;5040704;28;20079;-67
2021/09/08 05:36:39;;;;;;;18.83;8.70;;;;;;;12.21;100.00;7050.31;5040990;28;20094;-67
2021/09/08 05:39:04;;;;;;;19.27;8.87;;;;;;;12.30;100.00;6031.75;5040549;28;20247;-67
2021/09/08 05:41:29;;;;;;;22.30;9.20;;;;;;;12.45;100.00;4848.31;5040783;28;20032;-67
2021/09/08 05:43:55;;;;;;;19.13;8.30;;;;;;;12.58;100.00;3289.75;5040721;28;20106;-67
2021/09/08 05:46:21;;;;;;;19.63;8.37;;;;;;;12.69;100.00;-699.00;5041348;28;20035;-67
2021/09/08 05:48:46;;;;;;;17.63;8.63;;;;;;;12.91;100.00;504.53;5041543;28;20024;-67
2021/09/08 05:51:12;;;;;;;17.87;7.80;;;;;;;13.56;100.00;388.81;5030333;28;20033;-67
2021/09/08 05:53:37;;;;;;;13.17;6.70;;;;;;;14.71;100.00;-14282.69;5021169;28;20029;-67
2021/09/08 05:56:03;;;;;;;14.80;6.93;;;;;;;15.94;100.00;-19580.75;5021022;28;20355;-67
2021/09/08 05:58:29;;;;;;;15.20;6.23;;;;;;;16.94;100.00;-19606.50;5020374;28;20470;-67
2021/09/08 06:00:54;;;;;;;14.40;5.80;;;;;;;17.73;100.00;-19626.75;5019729;28;20386;-67
2021/09/08 06:03:20;;;;;;;12.33;6.00;;;;;;;17.71;100.00;-19626.09;5019979;28;20049;-67
2021/09/08 06:05:45;;;;;;;20.20;6.70;;;;;;;17.72;100.00;-19626.34;5020310;28;20033;-68
2021/09/08 06:08:11;;;;;;;11.77;5.67;;;;;;;18.14;100.00;-19637.16;5021214;28;20028;-68
2021/09/08 06:10:36;;;;;;;12.37;5.40;;;;;;;18.59;100.00;-19648.78;5019455;28;20044;-68
2021/09/08 06:13:02;;;;;;;12.17;5.40;;;;;;;18.93;100.00;-19657.38;5020276;28;20032;-69
2021/09/08 06:15:27;;;;;;;10.63;5.40;;;;;;;19.30;100.00;-19667.00;5020131;28;20041;-70
2021/09/08 06:17:53;;;;;;;9.40;4.75;;;;;;;19.46;100.00;-19671.03;5019835;28;20466;-70
2021/09/08 06:20:18;;;;;;;10.68;5.40;;;;;;;19.70;100.00;-19677.16;5019370;28;20029;-70
2021/09/08 06:22:44;;;;;;;12.82;4.97;;;;;;;19.97;100.00;-19683.91;5019625;28;20255;-70
2021/09/08 06:25:13;;;;;;;12.13;5.38;;;;;;;20.35;100.00;-19693.81;5019570;28;20033;-70
2021/09/08 06:27:42;;;;;;;11.90;5.30;;;;;;;20.26;100.00;-19691.47;5019178;28;20026;-70
2021/09/08 06:30:08;;;;;;;11.00;5.03;;;;;;;20.41;100.00;-19695.38;5019337;28;20048;-70
2021/09/08 06:32:34;;;;;;;9.63;4.78;;;;;;;20.35;100.00;-19693.81;5019423;28;20044;-70
2021/09/08 06:34:59;;;;;;;15.93;5.43;;;;;;;20.09;100.00;-19687.16;5019339;28;20033;-70
2021/09/08 06:37:25;;;;;;;13.32;5.30;;;;;;;20.09;100.00;-19687.03;5019600;28;20040;-70
2021/09/08 06:39:50;;;;;;;12.63;5.13;;;;;;;20.19;100.00;-19689.66;5019372;28;20266;-70
2021/09/08 06:42:16;;;;;;;12.15;5.28;;;;;;;20.61;100.00;-19700.44;5019792;28;20512;-70
2021/09/08 06:44:43;;;;;;;10.80;5.20;;;;;;;20.60;100.00;-19700.03;5019409;28;20230;-70
2021/09/08 06:47:08;;;;;;;11.98;5.05;;;;;;;20.72;100.00;-19703.16;5019361;28;20607;-70
2021/09/08 06:49:34;;;;;;;9.50;4.75;;;;;;;20.99;100.00;-19710.19;5019405;28;20071;-71
2021/09/08 06:51:59;;;;;;;10.20;4.53;;;;;;;21.27;100.00;-19717.31;5019057;28;20060;-71
2021/09/08 06:54:25;;;;;;;11.55;5.00;;;;;;;21.23;100.00;-19716.28;5019320;28;20045;-70
2021/09/08 06:56:50;;;;;;;9.43;4.78;;;;;;;21.43;100.00;-19721.22;5019108;28;20261;-71
2021/09/08 06:59:16;;;;;;;9.93;4.78;;;;;;;21.78;100.00;-19730.16;5019163;28;20033;-71
2021/09/08 07:01:41;;;;;;;10.40;4.88;;;;;;;21.70;100.00;-19728.09;5018432;28;20029;-71
2021/09/08 07:04:07;;;;;;;8.95;4.25;;;;;;;22.30;100.00;-19743.53;5018995;28;20182;-70
2021/09/08 07:06:32;;;;;;;10.85;4.60;;;;;;;22.59;100.00;-19750.91;5019255;28;20017;-70
2021/09/08 07:08:58;;;;;;;14.25;4.78;;;;;;;23.08;100.00;-19763.38;5019399;28;20032;-70
2021/09/08 07:11:23;;;;;;;10.25;4.30;;;;;;;23.30;100.00;-19768.94;5018980;28;20029;-69
2021/09/08 07:13:49;;;;;;;9.10;4.00;;;;;;;23.44;100.00;-19772.44;5019884;28;20611;-69
2021/09/08 07:16:15;;;;;;;8.73;4.40;;;;;;;23.50;100.00;-19773.97;5037415;28;20028;-68
2021/09/08 07:18:40;;;;;;;9.13;4.38;;;;;;;23.28;100.00;-19768.53;5039204;28;20447;-68
2021/09/08 07:21:06;;;;;;;10.15;4.15;;;;;;;23.62;100.00;-19777.09;5020987;28;20510;-68
2021/09/08 07:23:32;;;;;;;7.95;3.90;;;;;;;23.76;99.45;-19780.72;5023345;28;20067;-69
2021/09/08 07:25:57;;;;;;;9.85;4.13;;;;;;;23.85;100.00;-19783.03;5023515;28;20029;-69
2021/09/08 07:28:24;;;;;;;12.00;3.90;;;;;;;24.13;94.96;-19790.03;5023701;28;20032;-70
2021/09/08 07:30:53;;;;;;;8.32;4.00;;;;;;;24.14;92.62;-19790.28;5023365;28;20029;-71
2021/09/08 07:33:19;;;;;;;7.65;3.55;;;;;;;24.38;94.74;-19796.50;5022996;28;20275;-72
2021/09/08 07:35:47;;;;;;;7.43;3.80;;;;;;;24.70;90.32;-19804.50;5022582;28;20126;-72
2021/09/08 07:38:13;;;;;;;7.55;4.00;;;;;;;24.69;90.58;-19804.25;5022614;28;20057;-72
2021/09/08 07:40:39;;;;;;;11.32;4.05;;;;;;;25.29;88.72;-19819.47;5022228;28;20111;-71
2021/09/08 07:43:04;;;;;;;7.07;3.53;;;;;;;25.99;82.49;-19837.28;5022447;28;20029;-72
2021/09/08 07:45:30;;;;;;;8.13;3.78;;;;;;;25.86;77.05;-19833.94;5022434;28;20026;-72
2021/09/08 07:47:55;;;;;;;6.68;3.65;;;;;;;25.95;75.26;-19836.25;5022519;28;20028;-72
2021/09/08 07:50:21;;;;;;;9.57;3.95;;;;;;;26.42;74.13;-19848.13;5022269;28;20116;-73
2021/09/08 07:52:46;;;;;;;9.32;3.72;;;;;;;26.15;75.60;-19841.28;5022501;28;20029;-73
2021/09/08 07:55:12;;;;;;;7.35;3.60;;;;;;;25.97;74.73;-19836.78;5022257;28;20032;-72
2021/09/08 07:57:38;;;;;;;7.93;3.45;;;;;;;25.92;76.50;-19835.50;5022403;28;20025;-72
2021/09/08 08:00:04;;;;;;;7.28;3.38;;;;;;;25.58;77.29;-19826.84;5022212;28;20177;-73
2021/09/08 08:02:30;;;;;;;9.07;3.42;;;;;;;26.00;76.68;-19837.56;5022053;28;20459;-72
2021/09/08 08:04:55;;;;;;;7.30;3.30;;;;;;;26.34;72.91;-19846.19;5022152;28;20315;-73
2021/09/08 08:07:21;;;;;;;10.93;3.40;;;;;;;26.54;69.60;-19851.22;5022028;28;20014;-73
2021/09/08 08:09:46;;;;;;;7.97;3.42;;;;;;;26.79;66.19;-19857.66;5021975;28;20037;-74
2021/09/08 08:12:12;;;;;;;7.85;3.45;;;;;;;26.19;68.70;-19842.31;5022311;28;20280;-73
2021/09/08 08:14:38;;;;;;;6.70;3.50;;;;;;;26.80;65.84;-19857.91;5021593;28;20037;-73
2021/09/08 08:17:05;;;;;;;7.00;3.30;;;;;;;27.22;66.43;-19868.34;5022063;28;20277;-73
2021/09/08 08:19:31;;;;;;;12.80;4.38;;;;;;;26.83;64.65;-19858.69;5021884;28;20108;-73
2021/09/08 08:22:20;;;;;;;7.38;3.47;;;;;;;26.83;66.29;-19858.69;5027827;28;20025;-73
2021/09/08 08:24:47;;;;;;;10.52;4.30;;;;;;;26.88;65.05;-19859.97;5025758;28;20033;-72
2021/09/08 08:27:13;;;;;;;7.03;3.38;;;;;;;26.81;65.16;-19858.19;5026340;28;20518;-73
2021/09/08 08:29:38;;;;;;;7.07;3.70;;;;;;;26.72;65.39;-19855.84;5029563;28;20032;-73
2021/09/08 08:32:04;;;;;;;8.50;3.58;;;;;;;26.70;63.22;-19855.34;5044849;28;20017;-73
2021/09/08 08:34:35;;;;;;;7.38;3.33;;;;;;;27.24;63.56;-19868.88;5046699;28;20025;-73
2021/09/08 08:37:02;;;;;;;7.40;3.63;;;;;;;27.36;60.91;-19871.94;5046129;28;20021;-73
2021/09/08 08:39:28;;;;;;;7.28;3.67;;;;;;;27.53;60.95;-19876.19;5044442;28;20500;-73
2021/09/08 08:41:53;;;;;;;6.97;3.55;;;;;;;27.15;61.40;-19866.69;5043343;28;20310;-72
2021/09/08 08:44:23;;;;;;;9.57;3.65;;;;;;;27.22;78.40;-19868.47;5044107;28;20024;-73
2021/09/08 08:46:50;;;;;;;8.27;3.65;;;;;;;27.29;68.41;-19870.28;5044136;28;20415;-72
2021/09/08 08:49:17;;;;;;;6.90;3.67;;;;;;;27.68;67.43;-19880.06;5046349;28;20017;-73
2021/09/08 08:51:42;;;;;;;10.90;3.70;;;;;;;28.26;64.82;-19894.84;5031342;28;20120;-74
2021/09/08 08:54:08;;;;;;;7.15;3.63;;;;;;;28.83;58.96;-19909.25;5026009;28;20442;-73
2021/09/08 08:56:33;;;;;;;8.70;3.55;;;;;;;28.80;56.45;-19908.47;5025890;28;20029;-74
2021/09/08 08:59:00;;;;;;;7.35;3.47;;;;;;;28.54;57.95;-19901.78;5025037;28;20106;-74
2021/09/08 09:01:26;;;;;;;6.65;3.28;;;;;;;28.75;56.01;-19907.19;5024517;28;20335;-74
2021/09/08 09:04:09;;;;;;;8.70;3.47;;;;;;;28.06;56.14;-19889.72;5022360;28;20049;-73
2021/09/08 09:06:42;;;;;;;9.75;3.50;;;;;;;27.75;57.08;-19881.88;5002647;28;20038;-72
2021/09/08 09:09:12;;;;;;;7.00;3.65;;;;;;;27.61;58.56;-19878.25;5002776;28;20026;-72
2021/09/08 09:11:40;;;;;;;6.30;3.47;;;;;;;28.02;57.92;-19888.81;5023161;28;20203;-73
2021/09/08 09:14:08;;;;;;;6.72;3.60;;;;;;;28.38;55.92;-19897.69;5023566;28;20025;-73
2021/09/08 09:16:39;;;;;;;14.27;3.72;;;;;;;28.16;54.88;-19892.28;5022183;28;20374;-73
2021/09/08 09:19:06;;;;;;;7.60;3.85;;;;;;;28.13;55.07;-19891.50;5021380;28;20029;-72
2021/09/08 09:21:32;;;;;;;7.25;3.47;;;;;;;27.91;56.08;-19885.97;5001844;28;20030;-72
2021/09/08 09:24:00;;;;;;;9.57;3.38;;;;;;;28.55;54.47;-19902.03;5002522;28;20022;-72
2021/09/08 09:26:34;;;;;;;9.35;3.70;;;;;;;28.31;54.37;-19896.00;5022177;28;20025;-73
2021/09/08 09:29:12;;;;;;;6.35;2.90;;;;;;;28.45;52.39;-19899.47;5022745;28;20197;-73
2021/09/08 09:31:53;;;;;;;7.85;3.10;;;;;;;29.07;52.60;-19915.28;5022725;28;20305;-73
2021/09/08 09:34:20;;;;;;;7.00;3.13;;;;;;;29.33;51.33;-19921.69;5021996;28;20026;-73
2021/09/08 09:36:45;;;;;;;9.23;2.80;;;;;;;27.94;51.73;-19886.75;5021834;28;20025;-72
2021/09/08 09:39:11;;;;;;;8.30;3.03;;;;;;;28.31;51.96;-19896.13;5021125;28;20024;-71
2021/09/08 09:41:37;;;;;;;6.47;3.30;;;;;;;28.41;52.47;-19898.44;5021643;28;20021;-71
2021/09/08 09:44:10;;;;;;;7.70;3.08;;;;;;;28.60;53.53;-19903.47;5020605;28;20025;-71
2021/09/08 09:46:40;;;;;;;7.60;3.05;;;;;;;27.95;52.92;-19886.88;5020942;28;20033;-70
2021/09/08 09:49:06;;;;;;;7.00;3.30;;;;;;;28.14;52.00;-19891.75;5020407;28;20027;-69
2021/09/08 09:51:31;;;;;;;5.95;3.00;;;;;;;28.03;53.23;-19889.06;5027117;28;20514;-69
2021/09/08 09:53:58;;;;;;;6.45;3.33;;;;;;;28.00;52.20;-19888.28;5020112;28;20112;-68
2021/09/08 09:56:23;;;;;;;7.78;3.75;;;;;;;28.26;52.26;-19894.72;5020352;28;20102;-68
2021/09/08 09:58:49;;;;;;;7.30;3.22;;;;;;;28.33;53.24;-19896.53;5019971;28;20037;-68
2021/09/08 10:01:14;;;;;;;6.90;3.30;;;;;;;28.72;53.32;-19906.28;5020264;28;20128;-68
2021/09/08 10:03:40;;;;;;;7.07;3.22;;;;;;;28.89;51.25;-19910.66;5019880;28;20063;-68
2021/09/08 10:06:06;;;;;;;6.45;3.00;;;;;;;28.66;50.01;-19904.75;5020265;28;20261;-67
2021/09/08 10:08:37;;;;;;;6.15;2.75;;;;;;;28.41;50.09;-19898.59;5019892;28;20026;-67
2021/09/08 10:11:08;;;;;;;10.23;3.33;;;;;;;28.36;51.15;-19897.28;5019800;28;20036;-67
2021/09/08 10:13:46;;;;;;;7.93;2.95;;;;;;;27.71;51.02;-19880.97;5020167;28;20050;-67
2021/09/08 10:16:12;;;;;;;7.75;3.15;;;;;;;27.61;51.28;-19878.25;5019993;28;20044;-67
2021/09/08 10:18:41;;;;;;;5.70;2.85;;;;;;;27.82;52.70;-19883.66;5019959;28;20014;-67
2021/09/08 10:21:12;;;;;;;8.48;3.05;;;;;;;28.13;50.96;-19891.38;5019934;28;20037;-67
2021/09/08 10:23:40;;;;;;;5.43;2.72;;;;;;;28.03;49.46;-19888.94;5019889;28;20030;-67
2021/09/08 10:26:13;;;;;;;9.65;3.05;;;;;;;28.05;50.45;-19889.31;5019768;28;20029;-67
2021/09/08 10:28:44;;;;;;;7.13;3.30;;;;;;;28.28;50.18;-19895.25;5019700;28;20285;-67
2021/09/08 10:31:11;;;;;;;5.88;2.97;;;;;;;28.17;49.62;-19892.41;5019529;28;20034;-67
2021/09/08 10:33:38;;;;;;;5.55;2.58;;;;;;;27.21;51.73;-19868.22;5020038;28;20044;-67
2021/09/08 10:36:04;;;;;;;6.97;3.55;;;;;;;26.61;54.03;-19853.03;5019611;28;20029;-67
2021/09/08 10:38:31;;;;;;;7.30;3.03;;;;;;;25.99;55.48;-19837.28;5019540;28;20036;-67
2021/09/08 10:40:58;;;;;;;5.55;2.63;;;;;;;25.28;57.75;-19819.22;5019690;28;20071;-67
2021/09/08 10:43:34;;;;;;;7.57;3.58;;;;;;;25.11;59.70;-19815.09;5019495;28;20021;-67
2021/09/08 10:46:02;;;;;;;8.50;3.20;;;;;;;25.05;63.10;-19813.53;5019547;28;20109;-67
2021/09/08 10:48:45;;;;;;;7.18;3.20;;;;;;;24.88;62.49;-19809.03;5019877;28;20048;-67
2021/09/08 10:51:44;;;;;;;13.65;3.33;;;;;;;24.97;64.77;-19811.34;5019137;28;20037;-66
2021/09/08 10:54:09;;;;;;;9.25;3.40;;;;;;;24.83;64.08;-19807.84;5019213;28;20045;-66
2021/09/08 10:56:53;;;;;;;6.88;3.38;;;;;;;25.00;64.94;-19812.25;5019026;28;20560;-67
2021/09/08 10:59:18;;;;;;;6.30;3.25;;;;;;;25.02;65.95;-19812.78;5019078;28;20021;-67
2021/09/08 11:01:44;;;;;;;7.00;2.85;;;;;;;24.89;67.57;-19809.41;5018953;28;20025;-66
2021/09/08 11:04:16;;;;;;;7.68;3.58;;;;;;;25.01;68.57;-19812.50;5019038;28;20037;-67
2021/09/08 11:06:45;;;;;;;6.88;3.38;;;;;;;25.00;68.23;-19812.13;5019242;28;20052;-67
2021/09/08 11:09:12;;;;;;;7.75;3.75;;;;;;;24.87;67.20;-19808.91;5019040;28;20087;-66
2021/09/08 11:11:56;;;;;;;8.93;3.35;;;;;;;24.98;67.36;-19811.72;5019075;28;20025;-66
2021/09/08 11:14:52;;;;;;;7.57;3.30;;;;;;;25.01;67.09;-19812.50;5018940;28;20053;-67